Time;durP1;ratioP1;P1;durP2;ratioP2;P2;SDS_P1;SDS_P2;PMS_P1;PMS_P2;Temp;Humidity;BMP_temperature;BMP_pressure;BME280_temperature;BME280_humidity;BME280_pressure;Samples;Min_cycle;Max_cycle;Signal;HPM_P1;HPM_P2
2022/04/27 00:01:44;;;;;;;11.20;5.70;;;4.40;99.90;;;;;;5072444;28;20048;-47
2022/04/27 00:04:10;;;;;;;12.15;6.10;;;4.40;99.90;;;;;;5072478;28;20033;-50
2022/04/27 00:06:35;;;;;;;9.43;5.70;;;4.40;99.90;;;;;;5075712;28;20110;-47
2022/04/27 00:09:01;;;;;;;11.38;6.43;;;4.30;99.90;;;;;;5080600;28;20371;-52
2022/04/27 00:11:26;;;;;;;11.13;7.00;;;4.30;99.90;;;;;;5072140;28;20127;-51
2022/04/27 00:13:52;;;;;;;13.35;6.13;;;4.20;99.90;;;;;;5056131;28;20102;-51
2022/04/27 00:16:18;;;;;;;13.48;6.97;;;4.20;99.90;;;;;;5055502;28;20066;-49
2022/04/27 00:18:44;;;;;;;11.38;6.40;;;4.10;99.90;;;;;;5083693;28;20509;-50
2022/04/27 00:21:10;;;;;;;13.57;6.70;;;4.10;99.90;;;;;;5072998;28;20119;-51
2022/04/27 00:23:36;;;;;;;13.38;6.43;;;4.10;99.90;;;;;;5060269;28;20115;-52
2022/04/27 00:26:01;;;;;;;10.43;6.18;;;4.10;99.90;;;;;;5055303;28;20456;-52
2022/04/27 00:28:28;;;;;;;12.57;7.03;;;4.00;99.90;;;;;;5090542;28;20081;-50
2022/04/27 00:30:54;;;;;;;13.65;7.30;;;4.00;99.90;;;;;;5083924;28;20040;-50
2022/04/27 00:33:19;;;;;;;11.60;6.90;;;3.90;99.90;;;;;;5088586;28;20646;-47
2022/04/27 00:35:45;;;;;;;13.55;6.68;;;3.90;99.90;;;;;;5074734;28;20039;-49
2022/04/27 00:38:10;;;;;;;10.50;6.30;;;3.90;99.90;;;;;;5072151;28;20409;-50
2022/04/27 00:40:36;;;;;;;10.68;6.40;;;3.90;99.90;;;;;;5092025;28;20512;-48
2022/04/27 00:43:02;;;;;;;14.13;6.85;;;3.80;99.90;;;;;;5088037;28;20104;-49
2022/04/27 00:45:27;;;;;;;12.10;6.35;;;3.70;99.90;;;;;;5078636;28;20036;-47
2022/04/27 00:47:53;;;;;;;14.10;6.80;;;3.80;99.90;;;;;;5071256;28;20033;-49
2022/04/27 00:50:18;;;;;;;10.18;5.90;;;3.70;99.90;;;;;;5080125;28;20032;-51
2022/04/27 00:52:44;;;;;;;11.18;6.20;;;3.70;99.90;;;;;;5060895;28;20171;-51
2022/04/27 00:55:10;;;;;;;12.15;6.30;;;3.70;99.90;;;;;;5089132;28;20043;-51
2022/04/27 00:57:39;;;;;;;12.90;6.63;;;3.60;99.90;;;;;;5071121;28;20045;-48
2022/04/27 01:00:07;;;;;;;12.65;6.78;;;3.60;99.90;;;;;;5071527;28;20639;-48
2022/04/27 01:02:33;;;;;;;16.75;8.00;;;3.60;99.90;;;;;;5071042;28;20037;-52
2022/04/27 01:04:59;;;;;;;11.55;7.53;;;3.60;99.90;;;;;;5071120;28;20573;-51
2022/04/27 01:07:25;;;;;;;17.55;8.02;;;3.70;99.90;;;;;;5075263;28;20115;-50
2022/04/27 01:09:51;;;;;;;14.38;7.30;;;3.70;99.90;;;;;;5071350;28;20032;-48
2022/04/27 01:12:18;;;;;;;14.60;7.40;;;3.80;99.90;;;;;;5074720;28;20093;-50
2022/04/27 01:14:48;;;;;;;12.13;7.82;;;3.80;99.90;;;;;;5087931;28;20043;-52
2022/04/27 01:17:14;;;;;;;13.35;7.63;;;3.90;99.90;;;;;;5065133;28;20105;-47
2022/04/27 01:19:39;;;;;;;15.20;8.25;;;3.90;99.90;;;;;;5091592;28;20497;-50
2022/04/27 01:22:06;;;;;;;12.82;7.72;;;4.00;99.90;;;;;;5083360;28;20082;-50
2022/04/27 01:24:31;;;;;;;14.90;8.38;;;4.00;99.90;;;;;;5072265;28;20090;-50
2022/04/27 01:26:57;;;;;;;11.50;7.50;;;4.00;99.90;;;;;;5080179;28;20040;-50
2022/04/27 01:29:23;;;;;;;10.45;6.38;;;4.00;99.90;;;;;;5091473;28;20098;-50
2022/04/27 01:31:50;;;;;;;12.18;7.53;;;4.00;99.90;;;;;;5091556;28;20540;-49
2022/04/27 01:34:16;;;;;;;10.80;7.35;;;4.00;99.90;;;;;;5081054;28;20771;-50
2022/04/27 01:36:41;;;;;;;11.57;6.20;;;4.00;99.90;;;;;;5076093;28;20032;-51
2022/04/27 01:39:07;;;;;;;12.32;7.18;;;3.90;99.90;;;;;;5079156;28;20529;-51
2022/04/27 01:41:34;;;;;;;22.10;7.70;;;3.80;99.90;;;;;;5076513;28;20048;-49
2022/04/27 01:44:00;;;;;;;17.02;7.75;;;3.70;99.90;;;;;;5072307;28;20028;-51
2022/04/27 01:46:26;;;;;;;11.98;7.80;;;3.70;99.90;;;;;;5084664;28;20572;-52
2022/04/27 01:48:53;;;;;;;12.70;8.07;;;3.60;99.90;;;;;;5081730;28;20146;-52
2022/04/27 01:51:19;;;;;;;14.93;7.70;;;3.60;99.90;;;;;;5053563;28;20386;-52
2022/04/27 01:56:29;;;;;;;10.00;6.60;;;3.60;99.90;;;;;;5080737;28;20133;-50
2022/04/27 01:58:55;;;;;;;12.27;7.38;;;3.50;99.90;;;;;;5082584;28;20060;-50
2022/04/27 02:01:21;;;;;;;10.45;6.80;;;3.50;99.90;;;;;;5086286;28;20028;-47
2022/04/27 02:03:47;;;;;;;11.70;7.93;;;3.50;99.90;;;;;;5067216;28;20044;-49
2022/04/27 02:06:19;;;;;;;12.98;7.93;;;3.40;99.90;;;;;;5086448;28;20046;-47
2022/04/27 02:08:45;;;;;;;16.13;8.05;;;3.40;99.90;;;;;;5093048;28;20044;-48
2022/04/27 02:11:11;;;;;;;11.88;8.25;;;3.40;99.90;;;;;;5065786;28;20630;-47
2022/04/27 02:13:37;;;;;;;15.77;7.95;;;3.40;99.90;;;;;;5074200;28;20032;-47
2022/04/27 02:16:03;;;;;;;13.30;7.90;;;3.40;99.90;;;;;;5082740;28;20036;-47
2022/04/27 02:18:29;;;;;;;11.45;7.45;;;3.40;99.90;;;;;;5080281;28;20032;-48
2022/04/27 02:20:56;;;;;;;12.95;7.47;;;3.40;99.90;;;;;;5065047;28;20048;-48
2022/04/27 02:23:22;;;;;;;15.80;7.65;;;3.40;99.90;;;;;;5076849;28;20094;-47
2022/04/27 02:25:47;;;;;;;15.00;7.38;;;3.40;99.90;;;;;;5094662;28;20115;-47
2022/04/27 02:28:13;;;;;;;14.20;7.85;;;3.40;99.90;;;;;;5079785;28;20116;-50
2022/04/27 02:30:38;;;;;;;15.63;8.45;;;3.50;99.90;;;;;;5082548;28;20029;-49
2022/04/27 02:33:04;;;;;;;12.65;7.93;;;3.50;99.90;;;;;;5074253;28;20048;-47
2022/04/27 02:35:30;;;;;;;14.30;7.88;;;3.50;99.90;;;;;;5082354;28;20029;-47
2022/04/27 02:37:56;;;;;;;16.70;8.32;;;3.60;99.90;;;;;;5073798;28;20040;-47
2022/04/27 02:40:21;;;;;;;12.80;7.85;;;3.60;99.90;;;;;;5074235;28;20067;-49
2022/04/27 02:42:47;;;;;;;13.20;7.82;;;3.50;99.90;;;;;;5082101;28;20044;-49
2022/04/27 02:45:13;;;;;;;13.80;7.68;;;3.50;99.90;;;;;;5064536;28;20387;-49
2022/04/27 02:47:38;;;;;;;12.07;7.72;;;3.50;99.90;;;;;;5073929;28;20039;-48
2022/04/27 02:52:49;;;;;;;16.15;8.23;;;3.40;99.90;;;;;;5073561;28;20105;-47
2022/04/27 02:55:15;;;;;;;16.58;9.18;;;3.50;99.90;;;;;;5076556;28;20035;-48
2022/04/27 02:57:40;;;;;;;16.95;7.93;;;3.50;99.90;;;;;;5085700;28;20032;-47
2022/04/27 03:00:07;;;;;;;14.50;8.18;;;3.50;99.90;;;;;;5092573;28;20043;-48
2022/04/27 03:02:32;;;;;;;14.85;7.60;;;3.50;99.90;;;;;;5093791;28;20067;-49
2022/04/27 03:05:00;;;;;;;13.45;7.68;;;3.50;99.90;;;;;;5079520;28;20114;-48
2022/04/27 03:07:26;;;;;;;16.55;8.52;;;3.50;99.90;;;;;;5062664;28;20051;-48
2022/04/27 03:09:52;;;;;;;16.33;8.40;;;3.40;99.90;;;;;;5073693;28;20090;-47
2022/04/27 03:12:17;;;;;;;15.07;8.30;;;3.40;99.90;;;;;;5081476;28;20044;-47
2022/04/27 03:14:43;;;;;;;14.77;8.23;;;3.50;99.90;;;;;;5080110;28;20106;-48
2022/04/27 03:17:08;;;;;;;14.57;8.43;;;3.40;99.90;;;;;;5063576;28;20044;-49
2022/04/27 03:19:34;;;;;;;17.15;8.13;;;3.40;99.90;;;;;;5073561;28;20452;-49
2022/04/27 03:22:00;;;;;;;13.68;8.02;;;3.40;99.90;;;;;;5073559;28;20409;-47
2022/04/27 03:24:25;;;;;;;13.85;8.15;;;3.50;99.90;;;;;;5079991;28;20028;-51
2022/04/27 03:26:51;;;;;;;14.90;8.27;;;3.60;99.90;;;;;;5089040;28;20059;-48
2022/04/27 03:29:16;;;;;;;12.98;7.93;;;3.70;99.90;;;;;;5084743;28;20127;-48
2022/04/27 03:31:42;;;;;;;13.73;7.70;;;3.70;99.90;;;;;;5093351;28;20072;-48
2022/04/27 03:34:08;;;;;;;14.18;8.35;;;3.70;99.90;;;;;;5061369;28;20055;-47
2022/04/27 03:36:34;;;;;;;13.68;8.63;;;3.60;99.90;;;;;;5086015;28;20040;-47
2022/04/27 03:38:59;;;;;;;17.75;8.57;;;3.60;99.90;;;;;;5083380;28;20051;-47
2022/04/27 03:41:27;;;;;;;15.35;9.18;;;3.60;99.90;;;;;;5055106;28;20401;-47
2022/04/27 03:43:53;;;;;;;17.05;9.07;;;3.60;99.90;;;;;;5081220;22;20059;-48
2022/04/27 03:46:19;;;;;;;14.40;8.98;;;3.60;99.90;;;;;;5111977;28;20059;-47
2022/04/27 03:48:46;;;;;;;15.93;9.20;;;3.60;99.90;;;;;;5105423;28;20032;-48
2022/04/27 03:51:12;;;;;;;15.05;9.23;;;3.60;99.90;;;;;;5112605;28;20050;-49
2022/04/27 03:53:38;;;;;;;15.45;9.10;;;3.60;99.90;;;;;;5108310;28;20477;-48
2022/04/27 03:56:04;;;;;;;17.98;9.27;;;3.60;99.90;;;;;;5084155;28;20040;-46
2022/04/27 03:58:29;;;;;;;17.30;9.07;;;3.60;99.90;;;;;;5086243;28;20036;-48
2022/04/27 04:00:55;;;;;;;16.98;9.90;;;3.70;99.90;;;;;;5080940;28;20397;-47
2022/04/27 04:03:20;;;;;;;18.00;9.45;;;3.70;99.90;;;;;;5090512;28;20170;-48
2022/04/27 04:05:46;;;;;;;18.73;10.20;;;3.80;99.90;;;;;;5084713;28;20405;-47
2022/04/27 04:08:11;;;;;;;18.80;9.60;;;3.90;99.90;;;;;;5089621;28;20043;-49
2022/04/27 04:10:37;;;;;;;15.18;9.20;;;3.90;99.90;;;;;;5084022;28;20038;-47
2022/04/27 04:13:02;;;;;;;13.98;9.52;;;4.00;99.90;;;;;;5089411;28;20082;-48
2022/04/27 04:15:28;;;;;;;17.38;10.10;;;4.00;99.90;;;;;;5090791;28;20044;-48
2022/04/27 04:17:54;;;;;;;22.65;10.05;;;4.00;99.90;;;;;;5090948;28;20038;-48
2022/04/27 04:20:20;;;;;;;19.30;10.05;;;4.00;99.90;;;;;;5092510;28;20089;-48
2022/04/27 04:22:47;;;;;;;15.25;9.57;;;4.10;99.90;;;;;;5092349;28;20036;-47
2022/04/27 04:30:42;;;;;;;17.67;10.50;;;4.10;99.90;;;;;;5088026;28;20503;-49
2022/04/27 04:33:08;;;;;;;16.95;10.38;;;4.20;99.90;;;;;;5092248;28;20040;-48
2022/04/27 04:35:34;;;;;;;18.10;10.10;;;4.20;99.90;;;;;;5091263;28;20517;-51
2022/04/27 04:38:00;;;;;;;17.60;10.65;;;4.20;99.90;;;;;;5082147;28;20401;-48
2022/04/27 04:40:25;;;;;;;15.52;9.93;;;4.30;99.90;;;;;;5071665;28;20036;-48
2022/04/27 04:42:52;;;;;;;17.25;9.32;;;4.30;99.90;;;;;;5071545;28;20037;-48
2022/04/27 04:45:18;;;;;;;16.70;10.85;;;4.40;99.90;;;;;;5084296;28;20032;-50
2022/04/27 04:47:44;;;;;;;17.40;10.40;;;4.40;99.90;;;;;;5084114;28;20040;-50
2022/04/27 04:50:11;;;;;;;21.25;11.98;;;4.40;99.90;;;;;;5070631;28;20097;-48
2022/04/27 04:52:37;;;;;;;18.83;11.20;;;4.50;99.90;;;;;;5071715;28;20101;-49
2022/04/27 04:55:03;;;;;;;18.65;11.38;;;4.50;99.90;;;;;;5084019;28;20557;-47
2022/04/27 04:57:28;;;;;;;23.88;12.05;;;4.60;99.90;;;;;;5082593;28;20089;-49
2022/04/27 04:59:54;;;;;;;22.38;12.00;;;4.60;99.90;;;;;;5080623;28;20044;-48
2022/04/27 05:02:19;;;;;;;17.83;12.00;;;4.60;99.90;;;;;;5080480;28;20409;-51
2022/04/27 05:04:45;;;;;;;18.75;11.38;;;4.70;99.90;;;;;;5078739;28;20558;-48
2022/04/27 05:07:11;;;;;;;24.70;12.07;;;4.70;99.90;;;;;;5082214;28;20044;-51
2022/04/27 05:09:36;;;;;;;22.92;12.63;;;4.70;99.90;;;;;;5082711;28;20034;-47
2022/04/27 05:12:02;;;;;;;23.48;12.32;;;4.80;99.90;;;;;;5090747;28;20044;-48
2022/04/27 05:14:28;;;;;;;22.20;12.55;;;4.80;99.90;;;;;;5089784;28;20032;-47
2022/04/27 05:16:53;;;;;;;20.92;11.18;;;4.90;99.90;;;;;;5088289;28;20040;-50
2022/04/27 05:19:19;;;;;;;20.13;11.48;;;5.00;99.90;;;;;;5090058;28;20067;-47
2022/04/27 05:21:44;;;;;;;22.00;12.40;;;5.10;99.90;;;;;;5094641;28;20044;-48
2022/04/27 05:24:11;;;;;;;19.08;11.68;;;5.10;99.90;;;;;;5082756;28;20076;-48
2022/04/27 05:26:37;;;;;;;17.17;11.35;;;5.20;99.90;;;;;;5088764;28;20033;-50
2022/04/27 05:31:57;;;;;;;17.45;12.05;;;5.30;99.90;;;;;;5086034;28;20078;-50
2022/04/27 05:34:30;;;;;;;22.17;13.35;;;5.40;99.90;;;;;;5089125;28;20103;-48
2022/04/27 05:36:58;;;;;;;23.38;12.55;;;5.40;99.90;;;;;;5085183;28;20040;-51
2022/04/27 05:39:24;;;;;;;23.75;12.20;;;5.50;99.90;;;;;;5092960;28;20039;-49
2022/04/27 05:41:51;;;;;;;25.20;12.77;;;5.50;99.90;;;;;;5087655;28;20036;-48
2022/04/27 05:44:18;;;;;;;21.15;11.60;;;5.60;99.90;;;;;;5087615;28;20031;-48
2022/04/27 05:46:44;;;;;;;21.70;12.40;;;5.70;99.90;;;;;;5091806;28;20073;-47
2022/04/27 05:49:10;;;;;;;25.65;12.63;;;5.70;99.90;;;;;;5084675;28;20413;-51
2022/04/27 05:51:36;;;;;;;25.45;12.50;;;5.70;99.90;;;;;;5092372;28;20424;-49
2022/04/27 05:54:02;;;;;;;20.67;13.45;;;5.80;99.90;;;;;;5087835;28;20206;-48
2022/04/27 05:56:27;;;;;;;22.95;13.23;;;5.90;99.90;;;;;;5083601;28;20032;-48
2022/04/27 05:58:53;;;;;;;22.35;13.18;;;5.90;99.90;;;;;;5083975;28;20029;-49
2022/04/27 06:01:19;;;;;;;21.13;12.68;;;6.00;99.90;;;;;;5088824;28;20040;-50
2022/04/27 06:03:45;;;;;;;25.35;13.88;;;6.10;99.90;;;;;;5084529;28;20048;-49
2022/04/27 06:06:11;;;;;;;20.50;13.10;;;6.20;99.90;;;;;;5088904;28;20408;-49
2022/04/27 06:08:37;;;;;;;20.10;13.10;;;6.30;99.90;;;;;;5091126;28;20035;-49
2022/04/27 06:11:03;;;;;;;20.67;11.95;;;6.40;99.90;;;;;;5088996;28;20020;-50
2022/04/27 06:13:29;;;;;;;21.60;12.07;;;6.50;99.90;;;;;;5080535;28;20576;-48
2022/04/27 06:15:55;;;;;;;21.42;13.13;;;6.60;99.90;;;;;;5086513;28;20044;-47
2022/04/27 06:18:20;;;;;;;21.92;13.13;;;6.70;99.90;;;;;;5089780;28;20517;-48
2022/04/27 06:20:46;;;;;;;19.30;11.82;;;6.70;99.90;;;;;;5101214;28;20039;-48
2022/04/27 06:23:13;;;;;;;18.17;11.65;;;6.80;99.90;;;;;;5096539;28;20583;-48
2022/04/27 06:25:40;;;;;;;21.85;12.00;;;6.90;99.90;;;;;;5083152;28;20417;-48
2022/04/27 06:28:07;;;;;;;17.85;11.52;;;7.00;99.90;;;;;;5083214;28;20456;-48
2022/04/27 06:30:35;;;;;;;18.52;11.60;;;7.00;99.90;;;;;;5085031;28;20046;-48
2022/04/27 06:33:01;;;;;;;18.95;11.60;;;7.10;99.90;;;;;;5084300;28;20358;-48
2022/04/27 06:35:26;;;;;;;15.80;11.05;;;7.20;99.90;;;;;;5091063;28;20134;-49
2022/04/27 06:37:52;;;;;;;19.45;11.55;;;7.20;99.90;;;;;;5090437;28;20545;-48
2022/04/27 06:40:18;;;;;;;16.80;10.50;;;7.30;99.90;;;;;;5078305;28;20087;-49
2022/04/27 06:42:44;;;;;;;13.02;8.80;;;7.40;99.90;;;;;;5071929;28;20253;-48
2022/04/27 06:45:10;;;;;;;17.48;9.48;;;7.50;99.90;;;;;;5083646;28;20040;-48
2022/04/27 06:47:36;;;;;;;12.30;8.38;;;7.50;99.90;;;;;;5089835;28;20032;-48
2022/04/27 06:50:02;;;;;;;13.80;7.97;;;7.60;99.90;;;;;;5085572;28;20109;-48
2022/04/27 06:52:28;;;;;;;14.55;9.23;;;7.70;99.90;;;;;;5094158;28;20044;-48
2022/04/27 06:54:53;;;;;;;18.85;9.15;;;7.80;99.90;;;;;;5093969;28;20418;-49
2022/04/27 06:57:19;;;;;;;17.77;10.20;;;7.80;99.90;;;;;;5092633;28;20138;-48
2022/04/27 06:59:44;;;;;;;16.50;11.20;;;7.90;99.90;;;;;;5083413;28;20036;-49
2022/04/27 07:02:12;;;;;;;14.52;9.70;;;8.00;99.90;;;;;;5093488;28;20040;-48
2022/04/27 07:04:40;;;;;;;14.75;9.85;;;8.00;99.90;;;;;;5093707;28;20039;-49
2022/04/27 07:07:07;;;;;;;14.82;8.82;;;8.10;99.90;;;;;;5092707;28;20043;-49
2022/04/27 07:09:33;;;;;;;13.18;8.05;;;8.10;99.90;;;;;;5091105;28;20074;-49
2022/04/27 07:11:59;;;;;;;12.50;6.88;;;8.20;99.90;;;;;;5093682;28;20075;-50
2022/04/27 07:14:25;;;;;;;14.63;7.28;;;8.30;99.90;;;;;;5093549;28;20072;-48
2022/04/27 07:16:50;;;;;;;12.32;7.50;;;8.30;99.90;;;;;;5091583;28;20536;-47
2022/04/27 07:19:17;;;;;;;11.45;7.43;;;8.30;99.90;;;;;;5081723;28;20040;-49
2022/04/27 07:21:43;;;;;;;11.00;6.97;;;8.50;99.90;;;;;;5084737;28;20104;-49
2022/04/27 07:24:08;;;;;;;10.60;7.57;;;8.50;99.90;;;;;;5092997;28;20441;-48
2022/04/27 07:26:35;;;;;;;14.57;7.20;;;8.50;99.90;;;;;;5093516;28;20055;-49
2022/04/27 07:29:00;;;;;;;10.63;7.03;;;8.60;99.90;;;;;;5091186;28;20035;-48
2022/04/27 07:31:26;;;;;;;11.25;7.18;;;8.60;99.90;;;;;;5093199;28;20036;-48
2022/04/27 07:33:52;;;;;;;10.90;7.45;;;8.70;99.90;;;;;;5084830;28;20462;-48
2022/04/27 07:36:18;;;;;;;11.75;7.25;;;8.80;99.90;;;;;;5087794;28;20037;-49
2022/04/27 07:38:44;;;;;;;8.18;5.63;;;8.80;99.90;;;;;;5088086;28;20067;-48
2022/04/27 07:41:10;;;;;;;8.80;5.93;;;8.90;99.90;;;;;;5079500;28;20034;-48
2022/04/27 07:43:39;;;;;;;10.30;5.53;;;8.90;99.90;;;;;;5108172;28;20083;-48
2022/04/27 07:46:06;;;;;;;9.52;5.90;;;9.00;99.90;;;;;;5092908;28;20074;-49
2022/04/27 07:48:35;;;;;;;11.43;5.82;;;9.10;99.90;;;;;;5085856;28;20032;-49
2022/04/27 07:51:01;;;;;;;10.50;6.30;;;9.10;99.90;;;;;;5090636;28;20043;-47
2022/04/27 07:53:27;;;;;;;8.38;5.00;;;9.10;99.90;;;;;;5091334;28;20157;-46
2022/04/27 07:55:53;;;;;;;9.20;4.88;;;9.20;99.90;;;;;;5089444;28;20111;-48
2022/04/27 07:58:18;;;;;;;7.63;5.13;;;9.30;99.90;;;;;;5091815;28;20032;-48
2022/04/27 08:00:44;;;;;;;12.43;5.25;;;9.40;99.90;;;;;;5085015;28;20047;-47
2022/04/27 08:03:10;;;;;;;8.98;3.95;;;9.40;99.90;;;;;;5086547;28;20070;-49
2022/04/27 08:05:35;;;;;;;8.30;2.55;;;9.50;99.90;;;;;;5092562;28;20036;-47
2022/04/27 08:08:01;;;;;;;5.80;2.60;;;9.60;99.90;;;;;;5089273;28;20058;-47
2022/04/27 08:10:27;;;;;;;6.25;2.60;;;9.60;97.70;;;;;;5085613;28;20036;-48
2022/04/27 08:12:52;;;;;;;5.32;2.85;;;9.60;98.60;;;;;;5092599;28;20121;-48
2022/04/27 08:15:20;;;;;;;5.78;2.72;;;9.60;98.20;;;;;;5092097;28;20521;-51
2022/04/27 08:18:06;;;;;;;7.78;3.15;;;9.60;97.70;;;;;;5090301;28;20044;-51
2022/04/27 08:23:22;;;;;;;6.63;2.88;;;9.70;99.60;;;;;;5079964;28;20051;-47
2022/04/27 08:25:49;;;;;;;5.43;2.83;;;9.80;97.80;;;;;;5091931;28;20562;-50
2022/04/27 08:28:16;;;;;;;6.28;3.60;;;10.00;95.50;;;;;;5090852;28;20064;-47
2022/04/27 08:30:44;;;;;;;15.57;4.10;;;9.90;97.60;;;;;;5085190;28;20040;-48
2022/04/27 08:33:10;;;;;;;8.23;2.80;;;10.00;97.60;;;;;;5071986;28;20040;-47
2022/04/27 08:35:38;;;;;;;6.80;2.80;;;10.10;97.20;;;;;;5071840;28;20390;-48
2022/04/27 08:38:05;;;;;;;5.10;2.13;;;10.20;97.40;;;;;;5078517;28;20466;-47
2022/04/27 08:40:34;;;;;;;6.55;2.22;;;10.20;93.60;;;;;;5085358;28;20033;-49
2022/04/27 08:43:02;;;;;;;7.05;2.28;;;10.30;91.30;;;;;;5089608;28;20470;-47
2022/04/27 08:45:29;;;;;;;6.38;2.60;;;10.40;93.20;;;;;;5091390;28;20036;-47
2022/04/27 08:47:55;;;;;;;7.68;2.17;;;10.40;92.80;;;;;;5090410;28;20032;-47
2022/04/27 08:50:24;;;;;;;7.78;2.38;;;10.40;93.40;;;;;;5087606;28;20401;-50
2022/04/27 08:52:50;;;;;;;7.25;2.72;;;10.40;93.90;;;;;;5071470;28;20508;-47
2022/04/27 08:55:17;;;;;;;4.80;2.17;;;10.50;90.40;;;;;;5071485;28;20036;-47
2022/04/27 08:57:43;;;;;;;8.73;2.67;;;10.60;90.00;;;;;;5075329;28;20083;-47
2022/04/27 09:00:15;;;;;;;6.00;2.40;;;10.60;91.60;;;;;;5091307;28;20100;-48
2022/04/27 09:02:41;;;;;;;5.35;2.42;;;10.50;90.50;;;;;;5091969;28;20053;-47
2022/04/27 09:05:17;;;;;;;6.47;2.50;;;10.50;91.60;;;;;;5091072;28;20162;-48
2022/04/27 09:07:46;;;;;;;6.88;2.35;;;10.40;92.40;;;;;;5090936;28;20036;-47
2022/04/27 09:10:15;;;;;;;9.27;2.35;;;10.50;92.60;;;;;;5088620;28;20045;-47
2022/04/27 09:12:47;;;;;;;6.47;2.30;;;10.50;93.00;;;;;;5088544;28;20046;-47
2022/04/27 09:15:14;;;;;;;7.30;2.38;;;10.50;93.20;;;;;;5106966;28;20040;-48
2022/04/27 09:23:21;;;;;;;6.15;2.40;;;10.60;92.30;;;;;;5091410;28;20074;-47
2022/04/27 09:25:47;;;;;;;5.75;2.30;;;10.70;92.80;;;;;;5091589;28;20451;-47
2022/04/27 09:28:13;;;;;;;6.07;2.60;;;10.70;92.80;;;;;;5089890;28;20040;-48
2022/04/27 09:30:38;;;;;;;6.47;2.30;;;10.70;92.30;;;;;;5086350;28;20033;-47
2022/04/27 09:33:04;;;;;;;6.22;2.17;;;10.70;92.40;;;;;;5091533;28;20058;-48
2022/04/27 09:35:32;;;;;;;4.63;2.10;;;10.70;93.30;;;;;;5091562;28;20036;-47
2022/04/27 09:38:14;;;;;;;6.28;2.33;;;10.70;93.40;;;;;;5089947;28;20028;-48
2022/04/27 09:40:48;;;;;;;5.50;2.50;;;10.70;93.10;;;;;;5082735;28;20489;-47
2022/04/27 09:43:15;;;;;;;8.27;2.50;;;10.70;91.30;;;;;;5090881;28;20393;-47
2022/04/27 09:45:42;;;;;;;6.30;2.50;;;10.70;91.50;;;;;;5110018;22;20094;-52
2022/04/27 09:48:11;;;;;;;8.32;2.10;;;10.70;91.60;;;;;;5072462;28;20040;-52
2022/04/27 09:50:51;;;;;;;10.43;2.45;;;10.60;91.30;;;;;;5072852;28;20047;-52
2022/04/27 09:53:18;;;;;;;8.90;2.67;;;10.70;91.80;;;;;;5071926;28;20068;-51
2022/04/27 09:55:46;;;;;;;4.03;2.35;;;10.70;92.30;;;;;;5054539;28;20036;-52
2022/04/27 09:58:14;;;;;;;7.40;2.30;;;10.70;92.60;;;;;;5050265;28;20511;-52
2022/04/27 10:00:44;;;;;;;10.18;2.67;;;10.80;92.50;;;;;;5043013;28;20090;-52
2022/04/27 10:03:18;;;;;;;8.00;2.50;;;10.80;92.30;;;;;;5051197;28;20128;-52
2022/04/27 10:05:44;;;;;;;8.27;3.83;;;10.80;90.30;;;;;;5050680;28;20044;-52
2022/04/27 10:08:10;;;;;;;7.82;3.22;;;10.80;90.30;;;;;;5049842;28;20517;-52
2022/04/27 10:10:47;;;;;;;9.77;2.85;;;10.80;87.50;;;;;;5050669;28;20372;-52
2022/04/27 10:13:14;;;;;;;8.35;2.58;;;10.80;83.10;;;;;;5051154;28;20526;-51
2022/04/27 10:15:45;;;;;;;8.25;2.83;;;10.80;81.70;;;;;;5052562;28;20036;-51
2022/04/27 10:18:15;;;;;;;5.70;2.88;;;10.80;83.60;;;;;;5052614;28;20040;-52
2022/04/27 10:20:42;;;;;;;9.10;2.67;;;10.80;86.50;;;;;;5048634;28;20079;-52
2022/04/27 10:23:33;;;;;;;6.07;2.53;;;10.90;88.20;;;;;;5044550;28;20045;-48
2022/04/27 10:26:16;;;;;;;6.03;2.60;;;10.90;88.50;;;;;;5054560;28;20538;-52
2022/04/27 10:28:54;;;;;;;8.40;3.13;;;11.00;87.20;;;;;;5052079;28;20052;-49
2022/04/27 10:31:48;;;;;;;10.38;2.80;;;11.00;86.70;;;;;;5042952;28;20045;-49
2022/04/27 10:34:21;;;;;;;5.55;2.45;;;11.10;87.10;;;;;;5034532;28;20080;-50
2022/04/27 10:36:51;;;;;;;8.38;2.55;;;11.10;88.00;;;;;;5035695;28;20045;-51
2022/04/27 10:39:19;;;;;;;7.50;2.42;;;11.20;88.80;;;;;;5053274;28;20036;-51
2022/04/27 10:42:03;;;;;;;7.70;2.58;;;11.30;87.80;;;;;;5045364;28;20091;-53
2022/04/27 10:44:47;;;;;;;9.85;2.47;;;11.30;82.70;;;;;;5053900;28;20575;-53
2022/04/27 10:47:15;;;;;;;6.70;2.55;;;11.30;84.90;;;;;;5054021;28;20044;-53
2022/04/27 10:49:41;;;;;;;8.23;2.83;;;11.40;86.30;;;;;;5053116;28;20040;-54
2022/04/27 10:52:09;;;;;;;7.72;2.70;;;11.40;87.30;;;;;;5054112;28;20041;-53
2022/04/27 10:54:39;;;;;;;6.28;2.92;;;11.50;87.60;;;;;;5054156;28;20045;-51
2022/04/27 10:57:16;;;;;;;5.80;2.50;;;11.60;87.40;;;;;;5054062;28;20048;-50
2022/04/27 11:00:02;;;;;;;7.85;2.80;;;11.60;85.50;;;;;;5052274;28;20446;-53
2022/04/27 11:02:41;;;;;;;6.43;2.65;;;11.60;80.90;;;;;;5034188;28;20435;-53
2022/04/27 11:05:13;;;;;;;8.02;2.60;;;11.60;80.80;;;;;;5049473;28;20114;-50
2022/04/27 11:07:53;;;;;;;9.80;2.80;;;11.60;79.50;;;;;;5052963;28;20445;-50
2022/04/27 11:10:21;;;;;;;6.78;2.63;;;11.70;78.40;;;;;;5040608;28;20045;-52
2022/04/27 11:12:56;;;;;;;8.55;2.70;;;11.60;76.10;;;;;;5049796;28;20033;-54
2022/04/27 11:15:23;;;;;;;7.28;2.40;;;11.70;76.20;;;;;;5046137;28;20036;-53
2022/04/27 11:17:55;;;;;;;7.55;2.70;;;11.60;77.10;;;;;;5052927;28;20052;-51
2022/04/27 11:20:27;;;;;;;9.02;2.85;;;11.60;77.20;;;;;;5051341;28;20106;-53
2022/04/27 11:22:53;;;;;;;10.30;2.67;;;11.60;77.00;;;;;;5041873;28;20047;-54
2022/04/27 11:25:25;;;;;;;6.85;2.78;;;11.50;80.00;;;;;;5053877;28;20102;-51
2022/04/27 11:27:52;;;;;;;8.50;2.85;;;11.50;78.20;;;;;;5052579;28;20407;-49
2022/04/27 11:30:18;;;;;;;8.80;2.85;;;11.50;79.70;;;;;;5037479;28;20036;-53
2022/04/27 11:32:48;;;;;;;7.97;2.85;;;11.60;81.70;;;;;;5053490;28;20041;-51
2022/04/27 11:35:15;;;;;;;8.45;2.90;;;11.60;83.90;;;;;;5053134;28;20044;-50
2022/04/27 11:37:41;;;;;;;8.43;2.92;;;11.60;86.20;;;;;;5053171;28;20048;-53
2022/04/27 11:40:18;;;;;;;8.27;3.13;;;11.70;87.40;;;;;;5052346;28;20037;-51
2022/04/27 11:42:48;;;;;;;10.70;3.40;;;11.70;86.80;;;;;;5053285;28;20033;-51
2022/04/27 11:45:19;;;;;;;6.70;3.25;;;11.70;85.80;;;;;;5052953;28;20040;-50
2022/04/27 11:47:55;;;;;;;9.25;3.88;;;11.80;86.60;;;;;;5052294;28;20491;-53
2022/04/27 11:50:20;;;;;;;6.45;3.53;;;11.90;87.80;;;;;;5052820;28;20083;-51
2022/04/27 11:52:57;;;;;;;11.05;3.50;;;11.90;86.50;;;;;;5037259;28;20076;-52
2022/04/27 11:55:22;;;;;;;7.65;3.33;;;11.90;86.00;;;;;;5032993;28;20084;-53
2022/04/27 11:57:49;;;;;;;7.85;3.35;;;11.90;86.90;;;;;;5032820;28;20478;-50
2022/04/27 12:00:27;;;;;;;10.48;3.10;;;11.90;85.90;;;;;;5051634;28;20067;-51
2022/04/27 12:02:53;;;;;;;8.50;3.33;;;11.80;83.40;;;;;;5051865;28;20091;-50
2022/04/27 12:05:32;;;;;;;8.32;3.08;;;11.90;85.10;;;;;;5052616;28;20041;-51
2022/04/27 12:07:58;;;;;;;10.45;3.22;;;11.80;86.40;;;;;;5052321;28;20045;-50
2022/04/27 12:10:24;;;;;;;9.73;3.90;;;11.90;87.00;;;;;;5051989;28;20174;-49
2022/04/27 12:12:50;;;;;;;9.57;3.97;;;12.00;87.20;;;;;;5036180;28;20132;-54
2022/04/27 12:15:15;;;;;;;9.65;3.95;;;12.00;87.40;;;;;;5033140;28;20048;-51
2022/04/27 12:17:51;;;;;;;9.07;3.15;;;12.00;87.60;;;;;;5032906;28;20273;-52
2022/04/27 12:20:29;;;;;;;6.47;3.60;;;12.10;87.60;;;;;;5049672;28;20084;-53
2022/04/27 12:23:06;;;;;;;10.60;3.28;;;12.10;88.30;;;;;;5050686;28;20166;-51
2022/04/27 12:25:43;;;;;;;10.85;4.32;;;12.20;87.40;;;;;;5038006;28;20033;-52
2022/04/27 12:28:11;;;;;;;7.65;4.10;;;12.20;88.20;;;;;;5050987;28;20512;-54
2022/04/27 12:30:51;;;;;;;10.80;4.18;;;12.30;88.60;;;;;;5052178;28;20084;-51
2022/04/27 12:33:19;;;;;;;12.32;4.55;;;12.30;88.50;;;;;;5051177;28;20128;-52
2022/04/27 12:38:32;;;;;;;8.57;4.10;;;12.30;89.20;;;;;;5030417;28;20108;-53
2022/04/27 12:40:59;;;;;;;9.48;4.50;;;12.20;88.40;;;;;;5030931;28;20045;-54
2022/04/27 12:43:25;;;;;;;10.07;4.95;;;12.20;89.60;;;;;;5018261;28;20065;-53
2022/04/27 12:46:08;;;;;;;8.68;4.65;;;12.20;90.50;;;;;;5023708;28;20423;-53
2022/04/27 12:48:35;;;;;;;10.05;4.97;;;12.20;90.90;;;;;;5032095;28;20052;-52
2022/04/27 12:51:04;;;;;;;8.57;4.53;;;12.20;90.70;;;;;;5032071;28;20041;-52
2022/04/27 12:53:30;;;;;;;9.70;5.05;;;12.20;91.20;;;;;;5030660;28;20038;-54
2022/04/27 12:56:08;;;;;;;7.55;4.50;;;12.20;91.50;;;;;;5030823;28;20064;-54
2022/04/27 12:58:34;;;;;;;13.00;5.28;;;12.10;91.00;;;;;;5029114;28;20077;-52
2022/04/27 13:01:00;;;;;;;10.93;5.47;;;12.00;91.10;;;;;;5031858;28;20132;-51
2022/04/27 13:03:26;;;;;;;9.52;5.20;;;12.00;91.50;;;;;;5030576;28;20136;-51
2022/04/27 13:05:52;;;;;;;18.40;5.55;;;12.00;92.20;;;;;;5023543;28;20090;-51
2022/04/27 13:08:18;;;;;;;12.65;5.22;;;12.00;92.10;;;;;;5031497;28;20034;-53
2022/04/27 13:13:29;;;;;;;8.63;4.85;;;11.90;92.80;;;;;;5030254;28;20107;-53
2022/04/27 13:15:55;;;;;;;9.70;5.00;;;11.90;93.00;;;;;;5022713;28;20041;-51